Time;durP1;ratioP1;P1;durP2;ratioP2;P2;SDS_P1;SDS_P2;PMS_P1;PMS_P2;Temp;Humidity;BMP_temperature;BMP_pressure;BME280_temperature;BME280_humidity;BME280_pressure;Samples;Min_cycle;Max_cycle;Signal;HPM_P1;HPM_P2
2022/11/06 00:03:18;;;;;;;;;;;10.10;99.90;;;;;;8429459;28;19924;-76
2022/11/06 00:07:20;;;;;;;;;;;10.10;99.90;;;;;;8422679;28;19924;-76
2022/11/06 00:11:22;;;;;;;;;;;10.20;99.90;;;;;;8427755;28;19924;-76
2022/11/06 00:15:23;;;;;;;;;;;10.10;99.90;;;;;;8418339;28;19924;-76
2022/11/06 00:19:25;;;;;;;;;;;10.20;99.90;;;;;;8433978;28;19936;-75
2022/11/06 00:23:27;;;;;;;;;;;10.20;99.90;;;;;;8428046;28;19930;-76
2022/11/06 00:27:28;;;;;;;;;;;10.20;99.90;;;;;;8413849;28;19924;-76
2022/11/06 00:31:31;;;;;;;;;;;10.20;99.90;;;;;;8424835;28;20011;-76
2022/11/06 00:35:33;;;;;;;;;;;10.20;99.90;;;;;;8442585;28;20368;-76
2022/11/06 00:39:34;;;;;;;;;;;10.30;99.90;;;;;;8424510;28;19930;-76
2022/11/06 00:58:48;;;;;;;;;;;10.30;99.90;;;;;;8421525;28;19923;-75
2022/11/06 01:02:49;;;;;;;;;;;10.30;99.90;;;;;;8423779;28;20026;-76
2022/11/06 01:06:53;;;;;;;;;;;10.30;99.90;;;;;;8423125;28;19924;-77
2022/11/06 01:10:54;;;;;;;;;;;10.30;99.90;;;;;;8411087;28;19928;-76
2022/11/06 01:14:56;;;;;;;;;;;10.30;99.90;;;;;;8426092;28;20034;-76
2022/11/06 01:18:58;;;;;;;;;;;10.30;99.90;;;;;;8435291;28;20421;-76
2022/11/06 01:23:00;;;;;;;;;;;10.30;99.90;;;;;;8431236;28;19930;-76
2022/11/06 01:27:01;;;;;;;;;;;10.30;99.90;;;;;;8430442;28;19994;-76
2022/11/06 01:31:24;;;;;;;;;;;10.30;99.90;;;;;;8432989;28;19923;-76
2022/11/06 01:35:26;;;;;;;;;;;10.30;99.90;;;;;;8432964;28;19931;-76
2022/11/06 01:39:27;;;;;;;;;;;10.30;99.90;;;;;;8436739;28;19932;-76
2022/11/06 01:43:41;;;;;;;;;;;10.30;99.90;;;;;;8439170;28;19924;-76
2022/11/06 01:47:43;;;;;;;;;;;10.30;99.90;;;;;;8431435;28;20253;-76
2022/11/06 01:51:49;;;;;;;;;;;10.30;99.90;;;;;;8432896;28;20329;-76
2022/11/06 01:55:53;;;;;;;;;;;10.30;99.90;;;;;;8426796;28;20183;-76
2022/11/06 01:59:55;;;;;;;;;;;10.30;99.90;;;;;;8441181;28;19928;-76
2022/11/06 02:04:02;;;;;;;;;;;10.30;99.90;;;;;;8429115;28;19938;-77
2022/11/06 02:08:04;;;;;;;;;;;10.30;99.90;;;;;;8433759;28;19924;-76
2022/11/06 02:12:16;;;;;;;;;;;10.30;99.90;;;;;;8421123;28;19928;-76
2022/11/06 02:16:26;;;;;;;;;;;10.40;99.90;;;;;;8433311;28;19938;-77
2022/11/06 02:20:43;;;;;;;;;;;10.30;99.90;;;;;;8426455;28;19956;-76
2022/11/06 02:24:50;;;;;;;;;;;10.40;99.90;;;;;;8425255;28;20023;-76
2022/11/06 02:28:56;;;;;;;;;;;10.40;99.90;;;;;;8433050;28;19955;-76
2022/11/06 02:33:13;;;;;;;;;;;10.40;99.90;;;;;;8412790;28;20396;-76
2022/11/06 02:37:16;;;;;;;;;;;10.40;99.90;;;;;;8428596;28;19978;-76
2022/11/06 02:41:19;;;;;;;;;;;10.40;99.90;;;;;;8416541;28;19925;-76
2022/11/06 02:45:22;;;;;;;;;;;10.40;99.90;;;;;;8416118;28;19945;-76
2022/11/06 02:49:37;;;;;;;;;;;10.40;99.90;;;;;;8437414;28;19934;-76
2022/11/06 02:53:39;;;;;;;;;;;10.40;99.90;;;;;;8424074;28;20023;-76
2022/11/06 02:57:43;;;;;;;;;;;10.40;99.90;;;;;;8422523;28;19928;-76
2022/11/06 03:01:45;;;;;;;;;;;10.40;99.90;;;;;;8420172;28;19944;-76
2022/11/06 03:05:50;;;;;;;;;;;10.40;99.90;;;;;;8422981;28;20054;-76
2022/11/06 03:09:52;;;;;;;;;;;10.40;99.90;;;;;;8419793;28;19940;-76
2022/11/06 03:14:12;;;;;;;;;;;10.40;99.90;;;;;;8427095;28;20367;-76
2022/11/06 03:18:17;;;;;;;;;;;10.40;99.90;;;;;;8426951;28;20027;-76
2022/11/06 03:22:25;;;;;;;;;;;10.50;99.90;;;;;;8436048;28;20255;-76
2022/11/06 03:26:32;;;;;;;;;;;10.50;99.90;;;;;;8433002;28;19930;-76
2022/11/06 03:40:52;;;;;;;;;;;10.50;99.90;;;;;;8430949;28;19918;-76
2022/11/06 03:44:55;;;;;;;;;;;10.50;99.90;;;;;;8435359;28;19924;-76
2022/11/06 03:48:59;;;;;;;;;;;10.50;99.90;;;;;;8420629;28;20417;-76
2022/11/06 03:53:06;;;;;;;;;;;10.50;99.90;;;;;;8422986;28;20307;-76
2022/11/06 03:57:16;;;;;;;;;;;10.60;99.90;;;;;;8418191;28;19927;-76
2022/11/06 04:01:20;;;;;;;;;;;10.50;99.90;;;;;;8434043;28;19981;-76
2022/11/06 04:05:23;;;;;;;;;;;10.50;99.90;;;;;;8423860;28;20306;-76
2022/11/06 04:13:56;;;;;;;;;;;10.50;99.90;;;;;;8429183;28;20290;-76
2022/11/06 04:17:57;;;;;;;;;;;10.50;99.90;;;;;;8430863;28;20613;-76
2022/11/06 04:22:17;;;;;;;;;;;10.50;99.90;;;;;;8420824;28;19973;-76
2022/11/06 04:26:38;;;;;;;;;;;10.50;99.90;;;;;;8419567;28;20023;-76
2022/11/06 04:30:43;;;;;;;;;;;10.50;99.90;;;;;;8406726;28;20026;-77
2022/11/06 04:34:49;;;;;;;;;;;10.50;99.90;;;;;;8412620;28;19943;-77
2022/11/06 04:38:51;;;;;;;;;;;10.50;99.90;;;;;;8416746;28;19972;-76
2022/11/06 04:43:00;;;;;;;;;;;10.50;99.90;;;;;;8423285;28;20019;-76
2022/11/06 04:47:10;;;;;;;;;;;10.50;99.90;;;;;;8422406;28;19951;-76
2022/11/06 04:51:12;;;;;;;;;;;10.60;99.90;;;;;;8433967;28;21647;-76
2022/11/06 04:55:16;;;;;;;;;;;10.60;99.90;;;;;;8420053;28;20443;-76
2022/11/06 04:59:18;;;;;;;;;;;10.60;99.90;;;;;;8422315;28;20278;-76
2022/11/06 05:03:19;;;;;;;;;;;10.60;99.90;;;;;;8432872;28;20302;-76
2022/11/06 05:07:21;;;;;;;;;;;10.60;99.90;;;;;;8433904;28;19934;-76
2022/11/06 05:11:22;;;;;;;;;;;10.60;99.90;;;;;;8432126;28;19924;-77
2022/11/06 05:15:24;;;;;;;;;;;10.60;99.90;;;;;;8416282;28;19931;-76
2022/11/06 05:19:26;;;;;;;;;;;10.60;99.90;;;;;;8425268;28;20655;-76
2022/11/06 05:23:27;;;;;;;;;;;10.50;99.90;;;;;;8428019;28;20038;-76
2022/11/06 05:27:29;;;;;;;;;;;10.60;99.90;;;;;;8430754;28;19934;-76
2022/11/06 05:31:30;;;;;;;;;;;10.60;99.90;;;;;;8418143;28;20027;-77
2022/11/06 05:35:32;;;;;;;;;;;10.60;99.90;;;;;;8418521;28;19927;-76
2022/11/06 05:39:34;;;;;;;;;;;10.60;99.90;;;;;;8425197;28;20284;-76
2022/11/06 05:43:41;;;;;;;;;;;10.60;99.90;;;;;;8422098;28;19935;-76
2022/11/06 05:47:42;;;;;;;;;;;10.60;99.90;;;;;;8415352;28;19943;-76
2022/11/06 05:56:47;;;;;;;;;;;10.60;99.90;;;;;;8419618;28;20341;-76
2022/11/06 06:00:49;;;;;;;;;;;10.60;99.90;;;;;;8427477;28;19961;-76
2022/11/06 06:04:51;;;;;;;;;;;10.60;99.90;;;;;;8417497;28;19923;-76
2022/11/06 06:08:52;;;;;;;;;;;10.60;99.90;;;;;;8430748;28;19924;-76
2022/11/06 06:12:54;;;;;;;;;;;10.60;99.90;;;;;;8417000;28;19967;-76
2022/11/06 06:16:55;;;;;;;;;;;10.60;99.90;;;;;;8417053;28;19930;-76
2022/11/06 06:21:00;;;;;;;;;;;10.60;99.90;;;;;;8428664;28;19928;-76
2022/11/06 06:25:02;;;;;;;;;;;10.60;99.90;;;;;;8411426;28;19924;-76
2022/11/06 06:29:04;;;;;;;;;;;10.60;99.90;;;;;;8421039;28;20341;-76
2022/11/06 06:33:05;;;;;;;;;;;10.60;99.90;;;;;;8403178;28;19924;-76
2022/11/06 06:37:07;;;;;;;;;;;10.60;99.90;;;;;;8415866;28;19956;-76
2022/11/06 06:41:09;;;;;;;;;;;10.70;99.90;;;;;;8430704;28;20722;-76
2022/11/06 06:45:11;;;;;;;;;;;10.70;99.90;;;;;;8418133;28;19946;-76
2022/11/06 06:49:13;;;;;;;;;;;10.70;99.90;;;;;;8411144;28;19928;-76
2022/11/06 06:53:14;;;;;;;;;;;10.70;99.90;;;;;;8424986;28;20414;-76
2022/11/06 06:57:16;;;;;;;;;;;10.70;99.90;;;;;;8414033;28;19935;-76
2022/11/06 07:01:17;;;;;;;;;;;10.70;99.90;;;;;;8417467;28;19923;-76
2022/11/06 07:05:19;;;;;;;;;;;10.70;99.90;;;;;;8412394;28;19934;-75
2022/11/06 07:09:22;;;;;;;;;;;10.70;99.90;;;;;;8425155;28;20328;-76
2022/11/06 07:13:24;;;;;;;;;;;10.70;99.90;;;;;;8414244;28;20421;-76
2022/11/06 07:17:26;;;;;;;;;;;10.80;99.90;;;;;;8426460;28;19924;-76
2022/11/06 07:21:27;;;;;;;;;;;10.80;99.90;;;;;;8437631;27;20036;-76
2022/11/06 07:25:29;;;;;;;;;;;10.80;99.90;;;;;;8419610;28;19928;-76
2022/11/06 07:29:31;;;;;;;;;;;10.80;99.90;;;;;;8426749;28;20395;-76
2022/11/06 07:33:33;;;;;;;;;;;10.90;99.90;;;;;;8410279;28;20007;-76
2022/11/06 07:37:35;;;;;;;;;;;10.90;99.90;;;;;;8419840;28;19924;-76
2022/11/06 07:41:36;;;;;;;;;;;10.90;99.90;;;;;;8415739;28;19928;-76
2022/11/06 07:45:38;;;;;;;;;;;10.90;99.90;;;;;;8407628;28;19940;-76
2022/11/06 07:49:40;;;;;;;;;;;10.90;99.90;;;;;;8406493;28;19987;-76
2022/11/06 07:53:44;;;;;;;;;;;10.90;99.90;;;;;;8413973;28;19925;-76
2022/11/06 07:57:45;;;;;;;;;;;10.90;99.90;;;;;;8422315;28;20381;-76
2022/11/06 08:01:47;;;;;;;;;;;11.00;99.90;;;;;;8417206;28;20383;-76
2022/11/06 08:05:49;;;;;;;;;;;11.10;99.90;;;;;;8419667;28;19924;-76
2022/11/06 08:09:51;;;;;;;;;;;11.10;99.90;;;;;;8376318;28;19935;-76
2022/11/06 08:13:52;;;;;;;;;;;11.20;99.90;;;;;;8411377;28;19924;-76
2022/11/06 08:17:54;;;;;;;;;;;11.30;99.90;;;;;;8438660;27;19924;-76
2022/11/06 08:21:56;;;;;;;;;;;11.40;99.90;;;;;;8416051;28;19931;-76
2022/11/06 08:25:59;;;;;;;;;;;11.50;99.90;;;;;;8399572;28;19932;-76
2022/11/06 08:30:01;;;;;;;;;;;11.50;99.90;;;;;;8413852;28;20379;-76
2022/11/06 08:34:03;;;;;;;;;;;11.60;99.90;;;;;;8407450;28;20026;-76
2022/11/06 08:38:04;;;;;;;;;;;11.70;99.90;;;;;;8409963;28;19983;-76
2022/11/06 08:42:06;;;;;;;;;;;11.90;99.90;;;;;;8410654;28;19946;-76
2022/11/06 08:46:08;;;;;;;;;;;12.10;99.90;;;;;;8424675;28;19924;-76
2022/11/06 08:50:10;;;;;;;;;;;12.30;99.90;;;;;;8420326;28;19928;-76
2022/11/06 08:54:11;;;;;;;;;;;12.40;99.90;;;;;;8414374;28;19924;-76
2022/11/06 08:58:13;;;;;;;;;;;12.60;99.90;;;;;;8422972;28;19923;-76
2022/11/06 09:02:15;;;;;;;;;;;12.90;99.90;;;;;;8413896;28;20395;-76
2022/11/06 09:06:17;;;;;;;;;;;13.10;99.90;;;;;;8429885;28;19969;-76
2022/11/06 09:10:18;;;;;;;;;;;13.10;99.90;;;;;;8428335;28;20010;-76
2022/11/06 09:14:20;;;;;;;;;;;13.00;99.90;;;;;;8420412;28;19928;-76
2022/11/06 09:18:22;;;;;;;;;;;12.90;99.90;;;;;;8422749;28;19924;-76
2022/11/06 09:22:23;;;;;;;;;;;12.80;99.90;;;;;;8420399;28;19962;-76
2022/11/06 09:26:25;;;;;;;;;;;12.80;99.90;;;;;;8426883;28;20452;-76
2022/11/06 09:30:28;;;;;;;;;;;12.70;99.90;;;;;;8427321;28;20013;-76
2022/11/06 09:34:30;;;;;;;;;;;12.60;99.90;;;;;;8420910;28;19931;-76
2022/11/06 09:38:31;;;;;;;;;;;12.50;99.90;;;;;;8425330;28;20414;-76
2022/11/06 09:47:38;;;;;;;;;;;12.50;99.90;;;;;;8415793;28;20291;-75
2022/11/06 09:51:47;;;;;;;;;;;12.60;99.90;;;;;;8410246;28;20034;-76
2022/11/06 09:55:50;;;;;;;;;;;12.60;99.90;;;;;;8417510;28;19979;-76
2022/11/06 09:59:51;;;;;;;;;;;12.60;99.90;;;;;;8431342;28;20023;-76
2022/11/06 10:03:57;;;;;;;;;;;12.70;99.90;;;;;;8413400;28;19930;-75
2022/11/06 10:08:01;;;;;;;;;;;12.70;99.90;;;;;;8427177;28;19930;-76
2022/11/06 10:12:11;;;;;;;;;;;12.70;99.90;;;;;;8421082;28;19927;-75
2022/11/06 10:16:16;;;;;;;;;;;12.70;99.90;;;;;;8419791;28;19971;-76
2022/11/06 10:20:19;;;;;;;;;;;12.80;99.90;;;;;;8419453;28;19924;-76
2022/11/06 10:24:45;;;;;;;;;;;12.70;99.90;;;;;;8405710;28;19928;-76
2022/11/06 10:28:53;;;;;;;;;;;12.80;99.90;;;;;;8422188;28;19923;-76
2022/11/06 10:33:13;;;;;;;;;;;12.80;99.90;;;;;;8425604;28;19952;-76
2022/11/06 10:37:35;;;;;;;;;;;12.80;99.90;;;;;;8439495;27;19925;-77
2022/11/06 10:41:37;;;;;;;;;;;12.70;99.90;;;;;;8418870;28;19924;-76
2022/11/06 10:45:43;;;;;;;;;;;12.70;99.90;;;;;;8418333;28;19934;-76
2022/11/06 10:49:49;;;;;;;;;;;12.70;99.90;;;;;;8423615;28;19924;-76
2022/11/06 10:53:57;;;;;;;;;;;12.60;99.90;;;;;;8414914;28;20383;-77
2022/11/06 10:58:02;;;;;;;;;;;12.60;99.90;;;;;;8399372;28;20000;-76
2022/11/06 11:02:08;;;;;;;;;;;12.60;99.90;;;;;;8409195;27;19929;-76
2022/11/06 11:06:10;;;;;;;;;;;12.60;99.90;;;;;;8387503;28;19942;-77
2022/11/06 11:10:25;;;;;;;;;;;12.70;99.90;;;;;;8393510;28;19931;-76
2022/11/06 11:14:28;;;;;;;;;;;12.60;99.90;;;;;;8389658;28;20015;-76
2022/11/06 11:18:30;;;;;;;;;;;12.70;99.90;;;;;;8392413;28;19932;-76
2022/11/06 11:22:31;;;;;;;;;;;12.70;99.90;;;;;;8399781;28;20023;-76
2022/11/06 11:26:44;;;;;;;;;;;12.70;99.90;;;;;;8403151;28;19932;-76
2022/11/06 11:30:53;;;;;;;;;;;12.80;99.90;;;;;;8404726;28;19968;-75
2022/11/06 11:34:55;;;;;;;;;;;12.80;99.90;;;;;;8406792;28;20398;-76
2022/11/06 11:38:57;;;;;;;;;;;12.80;99.90;;;;;;8394933;28;20491;-76
2022/11/06 11:43:14;;;;;;;;;;;12.80;99.90;;;;;;8396266;28;19931;-76
2022/11/06 11:47:20;;;;;;;;;;;12.90;99.90;;;;;;8400465;28;19930;-76
2022/11/06 11:51:33;;;;;;;;;;;12.90;99.90;;;;;;8391562;28;20078;-75
2022/11/06 11:55:37;;;;;;;;;;;12.90;99.90;;;;;;8379884;28;19978;-75
2022/11/06 11:59:44;;;;;;;;;;;12.90;99.90;;;;;;8391181;28;20348;-75
2022/11/06 12:03:48;;;;;;;;;;;13.00;99.90;;;;;;8391269;28;20025;-75
2022/11/06 12:07:52;;;;;;;;;;;13.00;99.90;;;;;;8407361;28;20090;-76
2022/11/06 12:11:55;;;;;;;;;;;13.00;99.90;;;;;;8394407;28;19932;-76
2022/11/06 12:15:58;;;;;;;;;;;13.00;99.90;;;;;;8391138;28;20011;-76
2022/11/06 12:20:01;;;;;;;;;;;13.00;99.90;;;;;;8397865;28;19931;-76
2022/11/06 12:24:09;;;;;;;;;;;13.00;99.90;;;;;;8388489;28;20071;-76
2022/11/06 12:28:16;;;;;;;;;;;13.10;99.90;;;;;;8393021;28;19931;-76
2022/11/06 12:32:22;;;;;;;;;;;13.10;99.90;;;;;;8391506;28;20019;-76
2022/11/06 12:36:25;;;;;;;;;;;13.00;99.90;;;;;;8396193;28;20298;-77
2022/11/06 12:40:31;;;;;;;;;;;13.00;99.90;;;;;;8395158;28;19940;-76
2022/11/06 12:44:32;;;;;;;;;;;13.00;99.90;;;;;;8393706;28;19936;-76
2022/11/06 12:48:37;;;;;;;;;;;13.00;99.90;;;;;;8389137;28;20379;-76
2022/11/06 12:52:41;;;;;;;;;;;12.90;99.90;;;;;;8405795;28;19931;-76
2022/11/06 12:57:02;;;;;;;;;;;12.90;99.90;;;;;;8388293;28;20000;-76
2022/11/06 13:01:06;;;;;;;;;;;12.90;99.90;;;;;;8394882;28;19935;-75
2022/11/06 13:05:14;;;;;;;;;;;12.90;99.90;;;;;;8388622;28;19928;-76
2022/11/06 13:09:19;;;;;;;;;;;12.90;99.90;;;;;;8393619;28;19946;-75
2022/11/06 13:13:24;;;;;;;;;;;12.80;99.90;;;;;;8398612;28;20022;-73
2022/11/06 13:17:48;;;;;;;;;;;12.80;99.90;;;;;;8394583;28;19983;-72
2022/11/06 13:21:50;;;;;;;;;;;12.80;99.90;;;;;;8394096;28;19928;-73
2022/11/06 13:26:17;;;;;;;;;;;12.70;99.90;;;;;;8398217;28;19978;-72
2022/11/06 13:30:20;;;;;;;;;;;12.60;99.90;;;;;;8387661;28;19964;-72
2022/11/06 13:34:26;;;;;;;;;;;12.50;99.90;;;;;;8395294;28;19934;-72
2022/11/06 13:38:31;;;;;;;;;;;12.40;99.90;;;;;;8402173;28;20375;-72
2022/11/06 13:42:38;;;;;;;;;;;12.30;99.90;;;;;;8393497;28;19942;-72
2022/11/06 13:46:43;;;;;;;;;;;12.10;99.90;;;;;;8391620;28;19929;-72
2022/11/06 13:50:44;;;;;;;;;;;12.00;99.90;;;;;;8408452;28;19932;-72
2022/11/06 13:54:52;;;;;;;;;;;11.80;99.90;;;;;;8414779;27;19932;-72
2022/11/06 13:59:02;;;;;;;;;;;11.60;99.90;;;;;;8396245;28;19925;-73
2022/11/06 14:03:10;;;;;;;;;;;11.50;99.90;;;;;;8405567;28;20360;-72
2022/11/06 14:07:12;;;;;;;;;;;11.40;99.90;;;;;;8387812;28;20402;-72
2022/11/06 14:11:16;;;;;;;;;;;11.20;99.90;;;;;;8389132;28;19930;-72
2022/11/06 14:15:17;;;;;;;;;;;11.10;99.90;;;;;;8386263;28;19933;-73
2022/11/06 14:19:19;;;;;;;;;;;11.10;99.90;;;;;;8393124;28;19924;-72
2022/11/06 14:23:27;;;;;;;;;;;10.90;99.90;;;;;;8403205;28;19928;-72
2022/11/06 14:27:28;;;;;;;;;;;10.80;99.90;;;;;;8393273;28;20420;-73
2022/11/06 14:31:49;;;;;;;;;;;10.70;99.90;;;;;;8394723;28;20063;-72
2022/11/06 14:35:51;;;;;;;;;;;10.70;99.90;;;;;;8389870;28;19964;-72
2022/11/06 14:39:52;;;;;;;;;;;10.60;99.90;;;;;;8388450;28;19928;-72
2022/11/06 14:43:55;;;;;;;;;;;10.60;99.90;;;;;;8387281;28;19924;-72
2022/11/06 14:47:57;;;;;;;;;;;10.50;99.90;;;;;;8388116;28;22650;-73
2022/11/06 14:52:00;;;;;;;;;;;10.40;99.90;;;;;;8371809;28;19923;-72
2022/11/06 14:56:06;;;;;;;;;;;10.40;99.90;;;;;;8384435;28;19930;-73
2022/11/06 15:00:12;;;;;;;;;;;10.30;99.90;;;;;;8389375;28;19928;-73
2022/11/06 15:04:13;;;;;;;;;;;10.30;99.90;;;;;;8388981;28;20019;-72
2022/11/06 15:08:34;;;;;;;;;;;10.20;99.90;;;;;;8390236;28;19931;-72
2022/11/06 15:12:54;;;;;;;;;;;10.20;99.90;;;;;;8393579;28;20387;-73
2022/11/06 15:17:02;;;;;;;;;;;10.10;99.90;;;;;;8396041;28;20027;-72
2022/11/06 15:21:07;;;;;;;;;;;10.10;99.90;;;;;;8390861;28;20427;-73
2022/11/06 15:25:14;;;;;;;;;;;10.00;99.90;;;;;;8372810;28;20018;-72
2022/11/06 15:29:16;;;;;;;;;;;10.00;99.90;;;;;;8408186;27;19925;-73
2022/11/06 15:33:25;;;;;;;;;;;9.90;99.90;;;;;;8393642;28;19930;-72
2022/11/06 15:37:31;;;;;;;;;;;9.90;99.90;;;;;;8394969;28;19924;-73
2022/11/06 15:41:32;;;;;;;;;;;9.80;99.90;;;;;;8366920;28;19934;-73
2022/11/06 15:45:34;;;;;;;;;;;9.80;99.90;;;;;;8390496;28;20011;-72
2022/11/06 15:49:36;;;;;;;;;;;9.70;99.90;;;;;;8391055;28;20023;-73
2022/11/06 15:53:38;;;;;;;;;;;9.60;99.90;;;;;;8389144;28;19924;-73
2022/11/06 15:57:41;;;;;;;;;;;9.50;99.90;;;;;;8368306;28;19964;-72
2022/11/06 16:01:47;;;;;;;;;;;9.40;99.90;;;;;;8383396;28;19932;-73
2022/11/06 16:05:49;;;;;;;;;;;9.40;99.90;;;;;;8390249;28;20002;-73
2022/11/06 16:09:51;;;;;;;;;;;9.30;99.90;;;;;;8404070;27;19954;-72
2022/11/06 16:13:52;;;;;;;;;;;9.30;99.90;;;;;;8401204;27;19950;-73
2022/11/06 16:18:02;;;;;;;;;;;9.20;99.90;;;;;;8382951;28;20327;-73
2022/11/06 16:22:06;;;;;;;;;;;9.20;99.90;;;;;;8385894;28;20011;-73
2022/11/06 16:26:08;;;;;;;;;;;9.20;99.90;;;;;;8403271;27;19970;-73
2022/11/06 16:30:22;;;;;;;;;;;9.10;99.90;;;;;;8387548;28;19928;-73
2022/11/06 16:34:29;;;;;;;;;;;9.00;99.90;;;;;;8388204;28;20067;-72
2022/11/06 16:38:42;;;;;;;;;;;9.00;99.90;;;;;;8392316;28;20362;-72
2022/11/06 16:42:58;;;;;;;;;;;8.90;99.90;;;;;;8380708;28;20394;-72
2022/11/06 16:47:03;;;;;;;;;;;8.90;99.90;;;;;;8379048;28;19931;-73
2022/11/06 16:51:12;;;;;;;;;;;8.80;99.90;;;;;;8401751;28;19934;-73
2022/11/06 16:55:13;;;;;;;;;;;8.80;99.90;;;;;;8397639;28;20303;-72
2022/11/06 16:59:21;;;;;;;;;;;8.80;99.90;;;;;;8411410;27;20264;-72
2022/11/06 17:03:24;;;;;;;;;;;8.80;99.90;;;;;;8388725;28;20280;-72
2022/11/06 17:07:25;;;;;;;;;;;8.70;99.90;;;;;;8389667;28;19928;-72
2022/11/06 17:11:27;;;;;;;;;;;8.70;99.90;;;;;;8399220;28;20027;-72
2022/11/06 17:15:29;;;;;;;;;;;8.70;99.90;;;;;;8397306;28;19933;-72
2022/11/06 17:19:30;;;;;;;;;;;8.60;99.90;;;;;;8395435;28;20277;-72
2022/11/06 17:23:33;;;;;;;;;;;8.60;99.90;;;;;;8392125;28;19943;-72
2022/11/06 17:27:34;;;;;;;;;;;8.60;99.90;;;;;;8399619;28;20287;-72
2022/11/06 17:31:36;;;;;;;;;;;8.60;99.90;;;;;;8400305;28;19927;-73
2022/11/06 17:35:37;;;;;;;;;;;8.60;99.90;;;;;;8403484;28;19924;-72
2022/11/06 17:39:39;;;;;;;;;;;8.60;99.90;;;;;;8399583;28;19982;-73
2022/11/06 17:43:41;;;;;;;;;;;8.60;99.90;;;;;;8398672;28;19930;-72
2022/11/06 17:47:43;;;;;;;;;;;8.60;99.90;;;;;;8400476;28;19970;-72
2022/11/06 17:51:58;;;;;;;;;;;8.60;99.90;;;;;;8395479;28;20461;-72
2022/11/06 17:56:01;;;;;;;;;;;8.70;99.90;;;;;;8397721;28;19989;-72
2022/11/06 18:00:03;;;;;;;;;;;8.70;99.90;;;;;;8375758;28;19928;-72
2022/11/06 18:04:08;;;;;;;;;;;8.80;99.90;;;;;;8396871;28;20336;-72
2022/11/06 18:08:11;;;;;;;;;;;8.80;99.90;;;;;;8392383;28;20376;-72
2022/11/06 18:12:13;;;;;;;;;;;8.80;99.90;;;;;;8371425;28;20387;-72
2022/11/06 18:16:16;;;;;;;;;;;8.80;99.90;;;;;;8407079;27;20318;-71
2022/11/06 18:20:18;;;;;;;;;;;8.90;99.90;;;;;;8381217;28;19983;-72
2022/11/06 18:24:20;;;;;;;;;;;8.90;99.90;;;;;;8391787;28;19928;-72
2022/11/06 18:28:22;;;;;;;;;;;8.90;99.90;;;;;;8379557;28;19930;-72
2022/11/06 18:32:24;;;;;;;;;;;9.00;99.90;;;;;;8390815;28;19983;-72
2022/11/06 18:36:26;;;;;;;;;;;9.00;99.90;;;;;;8376090;28;19947;-72
2022/11/06 18:40:27;;;;;;;;;;;9.00;99.90;;;;;;8393187;28;19925;-72
2022/11/06 18:44:30;;;;;;;;;;;9.00;99.90;;;;;;8389338;28;19963;-72
2022/11/06 18:48:32;;;;;;;;;;;9.10;99.90;;;;;;8403742;28;19938;-72
2022/11/06 18:52:33;;;;;;;;;;;9.10;99.90;;;;;;8388895;28;19932;-72
2022/11/06 18:56:55;;;;;;;;;;;9.10;99.90;;;;;;8387952;28;19924;-72
2022/11/06 19:00:57;;;;;;;;;;;9.10;99.90;;;;;;8391210;28;19946;-73
2022/11/06 19:05:02;;;;;;;;;;;9.10;99.90;;;;;;8373012;28;19954;-72
2022/11/06 19:09:05;;;;;;;;;;;9.20;99.90;;;;;;8385482;28;20420;-72
2022/11/06 19:13:06;;;;;;;;;;;9.20;99.90;;;;;;8381816;28;20019;-72
2022/11/06 19:17:08;;;;;;;;;;;9.20;99.90;;;;;;8385819;28;19924;-72
2022/11/06 19:31:17;;;;;;;;;;;9.10;99.90;;;;;;8382296;28;19957;-72
2022/11/06 19:35:18;;;;;;;;;;;9.00;99.90;;;;;;8385116;28;20015;-72
2022/11/06 19:39:20;;;;;;;;;;;9.00;99.90;;;;;;8387590;28;19931;-72
2022/11/06 19:43:22;;;;;;;;;;;9.00;99.90;;;;;;8371604;28;19925;-72
2022/11/06 19:47:24;;;;;;;;;;;9.00;99.90;;;;;;8370629;28;20333;-72
2022/11/06 19:51:25;;;;;;;;;;;9.00;99.90;;;;;;8384867;28;19929;-72
2022/11/06 19:55:27;;;;;;;;;;;9.00;99.90;;;;;;8388248;28;19924;-72
2022/11/06 19:59:31;;;;;;;;;;;9.00;99.90;;;;;;8389465;28;19932;-73
2022/11/06 20:03:32;;;;;;;;;;;9.10;99.90;;;;;;8400673;28;20290;-72
2022/11/06 20:07:36;;;;;;;;;;;9.10;99.90;;;;;;8389447;28;20384;-72
2022/11/06 20:11:38;;;;;;;;;;;9.20;99.90;;;;;;8383352;28;20027;-72
2022/11/06 20:15:39;;;;;;;;;;;9.20;99.90;;;;;;8384865;28;19924;-72
2022/11/06 20:19:41;;;;;;;;;;;9.30;99.90;;;;;;8383063;28;19938;-72
2022/11/06 20:23:43;;;;;;;;;;;9.30;99.90;;;;;;8386525;28;20395;-72
2022/11/06 20:27:44;;;;;;;;;;;9.40;99.90;;;;;;8403832;27;19924;-72
2022/11/06 20:31:46;;;;;;;;;;;9.50;99.90;;;;;;8387532;28;20480;-72
2022/11/06 20:35:47;;;;;;;;;;;9.60;99.90;;;;;;8373573;28;19929;-72
2022/11/06 20:39:50;;;;;;;;;;;9.60;99.90;;;;;;8385848;28;19935;-72
2022/11/06 20:43:52;;;;;;;;;;;9.70;99.90;;;;;;8383124;28;19934;-72
2022/11/06 20:47:54;;;;;;;;;;;9.80;99.90;;;;;;8383829;28;19924;-72
2022/11/06 20:51:55;;;;;;;;;;;9.90;99.90;;;;;;8384906;28;19935;-72
2022/11/06 20:56:16;;;;;;;;;;;10.00;99.90;;;;;;8389527;28;19924;-72
2022/11/06 21:00:18;;;;;;;;;;;10.00;99.90;;;;;;8383444;28;19935;-72
2022/11/06 21:04:20;;;;;;;;;;;10.10;99.90;;;;;;8369426;28;20295;-72
2022/11/06 21:08:22;;;;;;;;;;;10.20;99.90;;;;;;8383936;28;20027;-72
2022/11/06 21:12:23;;;;;;;;;;;10.30;99.90;;;;;;8382064;28;20383;-72
2022/11/06 21:16:30;;;;;;;;;;;10.30;99.90;;;;;;8382051;28;19932;-72
2022/11/06 21:20:35;;;;;;;;;;;10.40;99.90;;;;;;8381606;28;20023;-72
2022/11/06 21:24:37;;;;;;;;;;;10.40;99.90;;;;;;8405183;28;19960;-72
2022/11/06 21:28:39;;;;;;;;;;;10.40;99.90;;;;;;8381117;28;19929;-72
2022/11/06 21:32:41;;;;;;;;;;;10.40;99.90;;;;;;8389755;28;19930;-72
2022/11/06 21:36:43;;;;;;;;;;;10.40;99.90;;;;;;8392803;28;19929;-72
2022/11/06 21:40:45;;;;;;;;;;;10.40;99.90;;;;;;8390456;28;19931;-72
2022/11/06 21:44:46;;;;;;;;;;;10.40;99.90;;;;;;8373194;28;19924;-72
2022/11/06 21:48:48;;;;;;;;;;;10.40;99.90;;;;;;8390274;28;19951;-72
2022/11/06 21:57:10;;;;;;;;;;;10.60;99.90;;;;;;8388467;28;20031;-73
2022/11/06 22:01:12;;;;;;;;;;;10.60;99.90;;;;;;8377095;28;20275;-72
2022/11/06 22:15:20;;;;;;;;;;;10.60;99.90;;;;;;8416239;28;20012;-73
2022/11/06 22:19:22;;;;;;;;;;;10.60;99.90;;;;;;8415224;28;19965;-72
2022/11/06 22:23:23;;;;;;;;;;;10.60;99.90;;;;;;8387969;28;19930;-72
2022/11/06 22:27:25;;;;;;;;;;;10.60;99.90;;;;;;8406926;28;19934;-73
2022/11/06 22:31:27;;;;;;;;;;;10.60;99.90;;;;;;8416147;28;19931;-72
2022/11/06 22:35:29;;;;;;;;;;;10.60;99.90;;;;;;8419565;28;19931;-72
2022/11/06 22:39:30;;;;;;;;;;;10.70;99.90;;;;;;8422359;28;19938;-72
2022/11/06 22:43:32;;;;;;;;;;;10.70;99.90;;;;;;8414404;28;19924;-72
2022/11/06 22:47:34;;;;;;;;;;;10.80;99.90;;;;;;8416183;28;19924;-72
2022/11/06 22:51:35;;;;;;;;;;;10.90;99.90;;;;;;8411205;28;20314;-72
2022/11/06 22:55:37;;;;;;;;;;;11.00;99.90;;;;;;8402823;28;19986;-72
2022/11/06 22:59:38;;;;;;;;;;;11.00;99.90;;;;;;8412849;28;19946;-72
2022/11/06 23:03:40;;;;;;;;;;;11.00;99.90;;;;;;8409521;28;19932;-72
2022/11/06 23:07:42;;;;;;;;;;;11.10;99.90;;;;;;8418903;28;20457;-72
2022/11/06 23:11:45;;;;;;;;;;;11.20;99.90;;;;;;8407797;28;19934;-72
2022/11/06 23:15:46;;;;;;;;;;;11.20;99.90;;;;;;8419163;28;19967;-72
2022/11/06 23:19:48;;;;;;;;;;;11.20;99.90;;;;;;8417049;28;19970;-72
2022/11/06 23:23:49;;;;;;;;;;;11.20;99.90;;;;;;8390112;28;19950;-73
2022/11/06 23:27:51;;;;;;;;;;;11.20;99.90;;;;;;8409466;28;19930;-72
2022/11/06 23:31:52;;;;;;;;;;;11.20;99.90;;;;;;8392581;28;19941;-72
2022/11/06 23:35:54;;;;;;;;;;;11.20;99.90;;;;;;8377688;28;19925;-72
2022/11/06 23:39:56;;;;;;;;;;;11.20;99.90;;;;;;8383256;28;19932;-72
2022/11/06 23:43:58;;;;;;;;;;;11.20;99.90;;;;;;8381697;28;20467;-72
2022/11/06 23:47:59;;;;;;;;;;;11.30;99.90;;;;;;8369577;28;19940;-72
2022/11/06 23:52:06;;;;;;;;;;;11.30;99.90;;;;;;8401650;28;19928;-72
2022/11/06 23:56:08;;;;;;;;;;;11.30;99.90;;;;;;8434529;28;19939;-72
